Airfield :
LOGIN :

Register | Disclaimer

   EN    FR    IT 

 










Legend :    VFR   Marginal VFR   IFR   Intensive IFR   Very Intensive IFR
Visi :
Ceiling :
>= 8 km
>= 3000ft
5 to 8 km
1000 to 3000 ft
1500m to 5 km
500 to 1000 ft
800 to 1500m
200 to 500 ft
< 800m
< 200 ft
Symbols :   Thunderstorms  Fog  Heavy snow  Heavy precipitations  Wind > 20 kt
SIGMETs :     Misc.  Thunderstorms  Icing  Turbulence  Mountain Waves  Volcanic Ashes







- Airport Elevation : 600 ft
- IATA code : VIE


LOWW - Vienna Schwechat

CURRENT METAR :
  • 181720Z VRB01KT CAVOK 14/11 Q1019 NOSIG

EXPIRED METARs :
  • 181650Z VRB01KT CAVOK 14/11 Q1019 NOSIG
  • 181620Z 07002KT CAVOK 14/11 Q1018 NOSIG
  • 181550Z 34003KT CAVOK 16/11 Q1018 NOSIG
  • 181520Z 35003KT CAVOK 17/11 Q1018 NOSIG
  • 181450Z 35004KT CAVOK 18/12 Q1018 NOSIG

TAF TAF LOWW
Valid from the 18 at 18:00 until the 20 at 00:00 UTC


181715Z 1818/1924 VRB02KT CAVOK TX20/1912Z TN10/1905Z
PROB30
TEMPO 1821/1908 4000 BR SCT040
TEMPO 1908/1915 35010KT 9999 FEW040
PROB30
TEMPO 1921/1924 4000 BR NSC
No reported NOTAMs for that airfield.



MET'MAP, your aeronautical weather chart ! - Copyright ORBIFLY December 2007 - Disclaimer

ORBIFLY MET'MAP TEAM :

Programming & Development : Alexandra Zaïnal
Concept & Development : Baudouin d'Aumeries
Co-Development & Prog : Marc-Olivier Méhu
Technical & hardware support : Manuel Goepfert

Contact : metmap@orbifly.com




SOURCES & CREDITS :

   NOAA